Main page
METAR-TAF:

METAR-TAF

Airports :

Mykonos International Airport

Mykonos, Greece

latitude: 37-26-09N, longitude: 025-20-45E, elevation: 123 m

Current weather observation

The report was made 23 minutes ago, at 01:50 UTC
Wind 3 kt from variable directions
Temperature 24°C
Humidity 78%
Pressure 1010 hPa
Visibility 10 km or more
no clouds below 1500 m and no cumulonimbus

METAR: LGMK 170150Z VRB03KT CAVOK 24/20 Q1010

Time: 05:13 (02:13 UTC)

Forecast

The report was made 3 hours and 13 minutes ago, at 23:00 UTC
Forecast valid from 17 at 00 UTC to 17 at 09 UTC
Wind 16 kt from the North/Northwest
Visibility 10 km or more
no clouds below 1500 m and no cumulonimbus

TAF: LGMK 162300Z 1700/1709 34016KT CAVOK

Weather observations and forecasts of more than 4000 airports (METAR and TAF reports).

The available stations are represented by yellow and red dots on the map.

Hover mouse over dot to see the name of the station.

Then click to see weather observations and forecasts.

To change the map : click on the green buttons with a black cross to zoom in, on the green button with a dash to zoom out, or on the green arrows for adjacent maps.


METAR-TAF: